Terminal Aerodrome Forecast
Issued by NWS Knoxville/Tri Cities, TN

Home | Current Version | Previous Version | Text Only | Print | Product List | Glossary On
Versions: 1 2 3 4 5 6 7 8 9 10 11 12 13 14 15 16 17 18 19 20 21 22 23 24 25
000
FTUS44 KMRX 282321
TAFCHA
TAF
KCHA 282321Z 2900/2924 25005KT P6SM SCT050
     FM290300 VRB03KT P6SM FEW060
     FM290900 00000KT 3SM BR SCT005
     FM291400 VRB03KT P6SM SCT250
     FM291800 10005KT P6SM FEW050 BKN250=

USA.gov is the U.S. government's official web portal to all federal, state and local government web resources and services.